sensor_id;sensor_type;location;lat;lon;timestamp;P1;durP1;ratioP1;P2;durP2;ratioP2
60478;SDS011;46321;48.398;11.754;2024-03-02T00:00:49;27.48;;;14.07;;
60478;SDS011;46321;48.398;11.754;2024-03-02T00:03:15;31.02;;;14.02;;
60478;SDS011;46321;48.398;11.754;2024-03-02T00:05:40;27.17;;;13.25;;
60478;SDS011;46321;48.398;11.754;2024-03-02T00:08:06;26.92;;;13.93;;
60478;SDS011;46321;48.398;11.754;2024-03-02T00:10:35;27.58;;;14.00;;
60478;SDS011;46321;48.398;11.754;2024-03-02T00:13:04;26.20;;;13.63;;
60478;SDS011;46321;48.398;11.754;2024-03-02T00:17:55;29.90;;;14.87;;
60478;SDS011;46321;48.398;11.754;2024-03-02T00:20:21;28.05;;;14.32;;
60478;SDS011;46321;48.398;11.754;2024-03-02T00:22:48;29.23;;;14.45;;
60478;SDS011;46321;48.398;11.754;2024-03-02T00:25:13;25.90;;;13.88;;
60478;SDS011;46321;48.398;11.754;2024-03-02T00:27:39;30.13;;;15.63;;
60478;SDS011;46321;48.398;11.754;2024-03-02T00:33:19;26.63;;;14.80;;
60478;SDS011;46321;48.398;11.754;2024-03-02T00:35:46;31.65;;;14.93;;
60478;SDS011;46321;48.398;11.754;2024-03-02T00:38:11;29.42;;;14.40;;
60478;SDS011;46321;48.398;11.754;2024-03-02T00:40:37;28.30;;;14.02;;
60478;SDS011;46321;48.398;11.754;2024-03-02T00:43:03;32.33;;;14.77;;
60478;SDS011;46321;48.398;11.754;2024-03-02T00:45:28;29.95;;;15.50;;
60478;SDS011;46321;48.398;11.754;2024-03-02T00:47:54;26.17;;;14.77;;
60478;SDS011;46321;48.398;11.754;2024-03-02T00:50:19;27.33;;;14.68;;
60478;SDS011;46321;48.398;11.754;2024-03-02T00:52:45;29.05;;;15.23;;
60478;SDS011;46321;48.398;11.754;2024-03-02T00:55:13;29.05;;;15.43;;
60478;SDS011;46321;48.398;11.754;2024-03-02T00:57:38;28.40;;;14.95;;
60478;SDS011;46321;48.398;11.754;2024-03-02T01:00:04;30.85;;;15.40;;
60478;SDS011;46321;48.398;11.754;2024-03-02T01:02:33;30.75;;;15.73;;
60478;SDS011;46321;48.398;11.754;2024-03-02T01:04:58;28.27;;;14.43;;
60478;SDS011;46321;48.398;11.754;2024-03-02T01:07:24;27.10;;;14.73;;
60478;SDS011;46321;48.398;11.754;2024-03-02T01:09:49;27.55;;;14.40;;
60478;SDS011;46321;48.398;11.754;2024-03-02T01:12:14;29.20;;;15.50;;
60478;SDS011;46321;48.398;11.754;2024-03-02T01:14:40;25.70;;;13.73;;
60478;SDS011;46321;48.398;11.754;2024-03-02T01:17:05;28.50;;;14.48;;
60478;SDS011;46321;48.398;11.754;2024-03-02T01:19:30;25.77;;;13.77;;
60478;SDS011;46321;48.398;11.754;2024-03-02T01:21:55;24.90;;;13.55;;
60478;SDS011;46321;48.398;11.754;2024-03-02T01:24:20;29.17;;;14.88;;
60478;SDS011;46321;48.398;11.754;2024-03-02T01:26:46;29.02;;;14.70;;
60478;SDS011;46321;48.398;11.754;2024-03-02T01:29:11;27.42;;;14.32;;
60478;SDS011;46321;48.398;11.754;2024-03-02T01:31:36;32.92;;;15.52;;
60478;SDS011;46321;48.398;11.754;2024-03-02T01:34:02;27.25;;;15.30;;
60478;SDS011;46321;48.398;11.754;2024-03-02T01:36:27;28.13;;;14.68;;
60478;SDS011;46321;48.398;11.754;2024-03-02T01:38:52;32.17;;;16.05;;
60478;SDS011;46321;48.398;11.754;2024-03-02T01:41:17;30.67;;;15.65;;
60478;SDS011;46321;48.398;11.754;2024-03-02T01:43:43;29.88;;;15.40;;
60478;SDS011;46321;48.398;11.754;2024-03-02T01:46:08;27.45;;;14.10;;
60478;SDS011;46321;48.398;11.754;2024-03-02T01:48:34;30.35;;;15.90;;
60478;SDS011;46321;48.398;11.754;2024-03-02T01:50:59;27.73;;;13.65;;
60478;SDS011;46321;48.398;11.754;2024-03-02T01:53:24;27.10;;;13.75;;
60478;SDS011;46321;48.398;11.754;2024-03-02T01:55:50;29.05;;;14.82;;
60478;SDS011;46321;48.398;11.754;2024-03-02T01:58:15;26.45;;;14.73;;
60478;SDS011;46321;48.398;11.754;2024-03-02T02:00:41;27.73;;;14.88;;
60478;SDS011;46321;48.398;11.754;2024-03-02T02:03:06;29.48;;;15.10;;
60478;SDS011;46321;48.398;11.754;2024-03-02T02:05:31;29.73;;;16.20;;
60478;SDS011;46321;48.398;11.754;2024-03-02T02:07:57;30.60;;;16.35;;
60478;SDS011;46321;48.398;11.754;2024-03-02T02:10:23;34.90;;;16.95;;
60478;SDS011;46321;48.398;11.754;2024-03-02T02:12:48;27.33;;;14.70;;
60478;SDS011;46321;48.398;11.754;2024-03-02T02:15:24;28.63;;;14.77;;
60478;SDS011;46321;48.398;11.754;2024-03-02T02:17:53;30.20;;;16.77;;
60478;SDS011;46321;48.398;11.754;2024-03-02T02:20:19;29.52;;;15.30;;
60478;SDS011;46321;48.398;11.754;2024-03-02T02:23:00;30.50;;;15.77;;
60478;SDS011;46321;48.398;11.754;2024-03-02T02:25:27;31.27;;;16.23;;
60478;SDS011;46321;48.398;11.754;2024-03-02T02:27:54;31.92;;;15.10;;
60478;SDS011;46321;48.398;11.754;2024-03-02T02:30:24;32.22;;;16.33;;
60478;SDS011;46321;48.398;11.754;2024-03-02T02:32:51;31.63;;;15.55;;
60478;SDS011;46321;48.398;11.754;2024-03-02T02:35:16;28.83;;;15.52;;
60478;SDS011;46321;48.398;11.754;2024-03-02T02:37:42;30.83;;;15.52;;
60478;SDS011;46321;48.398;11.754;2024-03-02T02:40:08;30.27;;;15.63;;
60478;SDS011;46321;48.398;11.754;2024-03-02T02:42:34;27.92;;;14.82;;
60478;SDS011;46321;48.398;11.754;2024-03-02T02:44:59;27.00;;;14.70;;
60478;SDS011;46321;48.398;11.754;2024-03-02T02:47:25;27.67;;;15.63;;
60478;SDS011;46321;48.398;11.754;2024-03-02T02:49:50;33.78;;;15.65;;
60478;SDS011;46321;48.398;11.754;2024-03-02T02:52:16;31.13;;;15.98;;
60478;SDS011;46321;48.398;11.754;2024-03-02T02:54:41;32.65;;;15.55;;
60478;SDS011;46321;48.398;11.754;2024-03-02T02:57:06;32.03;;;15.82;;
60478;SDS011;46321;48.398;11.754;2024-03-02T02:59:31;26.65;;;14.90;;
60478;SDS011;46321;48.398;11.754;2024-03-02T03:01:57;31.58;;;15.20;;
60478;SDS011;46321;48.398;11.754;2024-03-02T03:04:22;33.03;;;16.20;;
60478;SDS011;46321;48.398;11.754;2024-03-02T03:06:47;30.00;;;15.52;;
60478;SDS011;46321;48.398;11.754;2024-03-02T03:09:12;30.23;;;14.95;;
60478;SDS011;46321;48.398;11.754;2024-03-02T03:11:38;26.02;;;13.98;;
60478;SDS011;46321;48.398;11.754;2024-03-02T03:14:03;28.80;;;15.35;;
60478;SDS011;46321;48.398;11.754;2024-03-02T03:16:29;27.85;;;15.23;;
60478;SDS011;46321;48.398;11.754;2024-03-02T03:18:55;27.55;;;14.55;;
60478;SDS011;46321;48.398;11.754;2024-03-02T03:21:20;26.15;;;14.45;;
60478;SDS011;46321;48.398;11.754;2024-03-02T03:23:46;26.10;;;14.25;;
60478;SDS011;46321;48.398;11.754;2024-03-02T03:26:11;26.23;;;14.60;;
60478;SDS011;46321;48.398;11.754;2024-03-02T03:28:36;31.80;;;16.35;;
60478;SDS011;46321;48.398;11.754;2024-03-02T03:31:02;31.08;;;15.90;;
60478;SDS011;46321;48.398;11.754;2024-03-02T03:33:28;27.73;;;14.25;;
60478;SDS011;46321;48.398;11.754;2024-03-02T03:35:53;28.75;;;14.77;;
60478;SDS011;46321;48.398;11.754;2024-03-02T03:38:18;28.77;;;14.63;;
60478;SDS011;46321;48.398;11.754;2024-03-02T03:40:44;29.45;;;15.45;;
60478;SDS011;46321;48.398;11.754;2024-03-02T03:43:10;28.75;;;14.43;;
60478;SDS011;46321;48.398;11.754;2024-03-02T03:45:35;29.17;;;15.07;;
60478;SDS011;46321;48.398;11.754;2024-03-02T03:48:01;32.95;;;15.55;;
60478;SDS011;46321;48.398;11.754;2024-03-02T03:50:27;30.42;;;14.55;;
60478;SDS011;46321;48.398;11.754;2024-03-02T03:52:52;30.67;;;14.77;;
60478;SDS011;46321;48.398;11.754;2024-03-02T03:55:17;29.77;;;15.32;;
60478;SDS011;46321;48.398;11.754;2024-03-02T03:57:43;25.98;;;14.02;;
60478;SDS011;46321;48.398;11.754;2024-03-02T04:00:08;29.27;;;15.13;;
60478;SDS011;46321;48.398;11.754;2024-03-02T04:02:35;29.05;;;15.30;;
60478;SDS011;46321;48.398;11.754;2024-03-02T04:05:01;31.27;;;15.18;;
60478;SDS011;46321;48.398;11.754;2024-03-02T04:07:29;31.55;;;14.52;;
60478;SDS011;46321;48.398;11.754;2024-03-02T04:09:55;31.40;;;15.20;;
60478;SDS011;46321;48.398;11.754;2024-03-02T04:12:20;27.05;;;14.55;;
60478;SDS011;46321;48.398;11.754;2024-03-02T04:14:45;31.08;;;15.32;;
60478;SDS011;46321;48.398;11.754;2024-03-02T04:17:11;32.15;;;15.70;;
60478;SDS011;46321;48.398;11.754;2024-03-02T04:19:36;32.25;;;14.77;;
60478;SDS011;46321;48.398;11.754;2024-03-02T04:22:02;26.90;;;14.88;;
60478;SDS011;46321;48.398;11.754;2024-03-02T04:24:27;30.20;;;14.48;;
60478;SDS011;46321;48.398;11.754;2024-03-02T04:26:52;28.35;;;14.88;;
60478;SDS011;46321;48.398;11.754;2024-03-02T04:29:17;29.90;;;14.77;;
60478;SDS011;46321;48.398;11.754;2024-03-02T04:31:43;34.33;;;16.08;;
60478;SDS011;46321;48.398;11.754;2024-03-02T04:34:09;30.88;;;15.43;;
60478;SDS011;46321;48.398;11.754;2024-03-02T04:36:34;28.67;;;14.38;;
60478;SDS011;46321;48.398;11.754;2024-03-02T04:38:59;28.17;;;14.93;;
60478;SDS011;46321;48.398;11.754;2024-03-02T04:41:24;29.13;;;14.73;;
60478;SDS011;46321;48.398;11.754;2024-03-02T04:43:50;28.50;;;15.02;;
60478;SDS011;46321;48.398;11.754;2024-03-02T04:46:15;30.60;;;15.32;;
60478;SDS011;46321;48.398;11.754;2024-03-02T04:48:40;28.85;;;14.60;;
60478;SDS011;46321;48.398;11.754;2024-03-02T04:51:05;29.38;;;15.18;;
60478;SDS011;46321;48.398;11.754;2024-03-02T04:53:31;32.38;;;15.02;;
60478;SDS011;46321;48.398;11.754;2024-03-02T04:55:56;28.95;;;14.90;;
60478;SDS011;46321;48.398;11.754;2024-03-02T05:01:05;30.47;;;14.80;;
60478;SDS011;46321;48.398;11.754;2024-03-02T05:03:31;29.50;;;15.05;;
60478;SDS011;46321;48.398;11.754;2024-03-02T05:05:56;30.25;;;15.32;;
60478;SDS011;46321;48.398;11.754;2024-03-02T05:08:21;27.88;;;14.25;;
60478;SDS011;46321;48.398;11.754;2024-03-02T05:10:46;31.58;;;15.73;;
60478;SDS011;46321;48.398;11.754;2024-03-02T05:13:12;31.08;;;15.38;;
60478;SDS011;46321;48.398;11.754;2024-03-02T05:15:37;29.50;;;15.50;;
60478;SDS011;46321;48.398;11.754;2024-03-02T05:18:02;27.75;;;14.02;;
60478;SDS011;46321;48.398;11.754;2024-03-02T05:20:30;29.90;;;14.75;;
60478;SDS011;46321;48.398;11.754;2024-03-02T05:22:55;29.90;;;14.75;;
60478;SDS011;46321;48.398;11.754;2024-03-02T05:25:21;32.70;;;15.25;;
60478;SDS011;46321;48.398;11.754;2024-03-02T05:27:46;29.98;;;14.63;;
60478;SDS011;46321;48.398;11.754;2024-03-02T05:30:11;33.50;;;15.75;;
60478;SDS011;46321;48.398;11.754;2024-03-02T05:32:36;31.48;;;15.60;;
60478;SDS011;46321;48.398;11.754;2024-03-02T05:35:02;28.42;;;15.27;;
60478;SDS011;46321;48.398;11.754;2024-03-02T05:37:28;34.42;;;16.17;;
60478;SDS011;46321;48.398;11.754;2024-03-02T05:39:53;29.33;;;15.18;;
60478;SDS011;46321;48.398;11.754;2024-03-02T05:42:18;33.67;;;15.50;;
60478;SDS011;46321;48.398;11.754;2024-03-02T05:44:44;35.20;;;16.23;;
60478;SDS011;46321;48.398;11.754;2024-03-02T05:47:09;32.15;;;15.65;;
60478;SDS011;46321;48.398;11.754;2024-03-02T05:49:35;32.65;;;16.25;;
60478;SDS011;46321;48.398;11.754;2024-03-02T05:52:00;38.00;;;16.77;;
60478;SDS011;46321;48.398;11.754;2024-03-02T05:54:25;35.13;;;17.25;;
60478;SDS011;46321;48.398;11.754;2024-03-02T05:56:51;33.55;;;16.20;;
60478;SDS011;46321;48.398;11.754;2024-03-02T05:59:16;33.05;;;16.48;;
60478;SDS011;46321;48.398;11.754;2024-03-02T06:01:42;31.67;;;17.15;;
60478;SDS011;46321;48.398;11.754;2024-03-02T06:04:09;33.33;;;16.75;;
60478;SDS011;46321;48.398;11.754;2024-03-02T06:06:36;31.42;;;15.98;;
60478;SDS011;46321;48.398;11.754;2024-03-02T06:09:01;37.60;;;16.83;;
60478;SDS011;46321;48.398;11.754;2024-03-02T06:11:30;51.28;;;26.20;;
60478;SDS011;46321;48.398;11.754;2024-03-02T06:13:55;46.88;;;23.58;;
60478;SDS011;46321;48.398;11.754;2024-03-02T06:16:21;36.05;;;17.05;;
60478;SDS011;46321;48.398;11.754;2024-03-02T06:18:46;36.17;;;17.23;;
60478;SDS011;46321;48.398;11.754;2024-03-02T06:21:12;33.05;;;17.10;;
60478;SDS011;46321;48.398;11.754;2024-03-02T06:23:37;32.78;;;15.68;;
60478;SDS011;46321;48.398;11.754;2024-03-02T06:26:02;33.72;;;16.95;;
60478;SDS011;46321;48.398;11.754;2024-03-02T06:28:28;37.97;;;18.05;;
60478;SDS011;46321;48.398;11.754;2024-03-02T06:30:53;33.47;;;16.52;;
60478;SDS011;46321;48.398;11.754;2024-03-02T06:33:19;33.30;;;17.63;;
60478;SDS011;46321;48.398;11.754;2024-03-02T06:35:44;32.92;;;18.00;;
60478;SDS011;46321;48.398;11.754;2024-03-02T06:38:09;35.55;;;16.83;;
60478;SDS011;46321;48.398;11.754;2024-03-02T06:40:34;32.60;;;16.45;;
60478;SDS011;46321;48.398;11.754;2024-03-02T06:43:02;31.40;;;16.15;;
60478;SDS011;46321;48.398;11.754;2024-03-02T06:45:28;32.35;;;15.88;;
60478;SDS011;46321;48.398;11.754;2024-03-02T06:47:55;33.28;;;16.02;;
60478;SDS011;46321;48.398;11.754;2024-03-02T06:50:21;57.53;;;28.85;;
60478;SDS011;46321;48.398;11.754;2024-03-02T06:52:46;90.68;;;43.85;;
60478;SDS011;46321;48.398;11.754;2024-03-02T06:55:11;48.15;;;22.95;;
60478;SDS011;46321;48.398;11.754;2024-03-02T06:57:37;36.88;;;18.55;;
60478;SDS011;46321;48.398;11.754;2024-03-02T07:00:02;33.63;;;17.10;;
60478;SDS011;46321;48.398;11.754;2024-03-02T07:02:30;35.80;;;17.77;;
60478;SDS011;46321;48.398;11.754;2024-03-02T07:04:55;38.22;;;18.20;;
60478;SDS011;46321;48.398;11.754;2024-03-02T07:07:21;33.80;;;18.05;;
60478;SDS011;46321;48.398;11.754;2024-03-02T07:09:46;35.85;;;17.27;;
60478;SDS011;46321;48.398;11.754;2024-03-02T07:12:12;38.60;;;18.58;;
60478;SDS011;46321;48.398;11.754;2024-03-02T07:14:38;34.80;;;18.33;;
60478;SDS011;46321;48.398;11.754;2024-03-02T07:17:21;37.75;;;17.92;;
60478;SDS011;46321;48.398;11.754;2024-03-02T07:19:46;36.55;;;17.05;;
60478;SDS011;46321;48.398;11.754;2024-03-02T07:22:12;33.03;;;16.63;;
60478;SDS011;46321;48.398;11.754;2024-03-02T07:24:43;34.42;;;17.85;;
60478;SDS011;46321;48.398;11.754;2024-03-02T07:27:10;32.30;;;16.43;;
60478;SDS011;46321;48.398;11.754;2024-03-02T07:29:37;40.40;;;19.02;;
60478;SDS011;46321;48.398;11.754;2024-03-02T07:32:03;34.60;;;16.83;;
60478;SDS011;46321;48.398;11.754;2024-03-02T07:34:29;34.25;;;17.45;;
60478;SDS011;46321;48.398;11.754;2024-03-02T07:36:54;35.55;;;17.73;;
60478;SDS011;46321;48.398;11.754;2024-03-02T07:39:20;45.88;;;22.60;;
60478;SDS011;46321;48.398;11.754;2024-03-02T07:41:45;41.00;;;19.65;;
60478;SDS011;46321;48.398;11.754;2024-03-02T07:44:11;34.97;;;16.85;;
60478;SDS011;46321;48.398;11.754;2024-03-02T07:46:39;30.67;;;17.08;;
60478;SDS011;46321;48.398;11.754;2024-03-02T07:49:05;36.42;;;18.60;;
60478;SDS011;46321;48.398;11.754;2024-03-02T07:51:31;35.70;;;18.52;;
60478;SDS011;46321;48.398;11.754;2024-03-02T07:53:56;34.72;;;19.20;;
60478;SDS011;46321;48.398;11.754;2024-03-02T07:56:21;35.95;;;18.63;;
60478;SDS011;46321;48.398;11.754;2024-03-02T07:58:48;36.92;;;18.40;;
60478;SDS011;46321;48.398;11.754;2024-03-02T08:01:14;36.60;;;18.55;;
60478;SDS011;46321;48.398;11.754;2024-03-02T08:03:39;36.75;;;17.55;;
60478;SDS011;46321;48.398;11.754;2024-03-02T08:06:05;35.55;;;18.23;;
60478;SDS011;46321;48.398;11.754;2024-03-02T08:08:31;35.38;;;17.92;;
60478;SDS011;46321;48.398;11.754;2024-03-02T08:10:56;34.80;;;17.45;;
60478;SDS011;46321;48.398;11.754;2024-03-02T08:13:21;35.90;;;18.20;;
60478;SDS011;46321;48.398;11.754;2024-03-02T08:15:47;42.42;;;17.15;;
60478;SDS011;46321;48.398;11.754;2024-03-02T08:18:12;34.17;;;17.67;;
60478;SDS011;46321;48.398;11.754;2024-03-02T08:20:37;34.78;;;17.48;;
60478;SDS011;46321;48.398;11.754;2024-03-02T08:23:03;36.75;;;18.23;;
60478;SDS011;46321;48.398;11.754;2024-03-02T08:25:28;38.53;;;18.75;;
60478;SDS011;46321;48.398;11.754;2024-03-02T08:27:54;41.13;;;18.58;;
60478;SDS011;46321;48.398;11.754;2024-03-02T08:30:19;42.78;;;18.40;;
60478;SDS011;46321;48.398;11.754;2024-03-02T08:32:44;37.40;;;18.48;;
60478;SDS011;46321;48.398;11.754;2024-03-02T08:35:12;33.88;;;17.35;;
60478;SDS011;46321;48.398;11.754;2024-03-02T08:37:38;34.35;;;18.55;;
60478;SDS011;46321;48.398;11.754;2024-03-02T08:40:06;35.80;;;17.25;;
60478;SDS011;46321;48.398;11.754;2024-03-02T08:42:32;36.03;;;18.05;;
60478;SDS011;46321;48.398;11.754;2024-03-02T08:44:58;35.47;;;17.52;;
60478;SDS011;46321;48.398;11.754;2024-03-02T08:47:25;31.80;;;16.90;;
60478;SDS011;46321;48.398;11.754;2024-03-02T08:49:51;30.77;;;16.77;;
60478;SDS011;46321;48.398;11.754;2024-03-02T08:52:16;39.92;;;20.67;;
60478;SDS011;46321;48.398;11.754;2024-03-02T08:54:41;28.17;;;15.48;;
60478;SDS011;46321;48.398;11.754;2024-03-02T08:57:07;26.98;;;15.18;;
60478;SDS011;46321;48.398;11.754;2024-03-02T08:59:32;24.95;;;14.65;;
60478;SDS011;46321;48.398;11.754;2024-03-02T09:01:58;29.02;;;15.65;;
60478;SDS011;46321;48.398;11.754;2024-03-02T09:04:24;34.25;;;16.77;;
60478;SDS011;46321;48.398;11.754;2024-03-02T09:06:49;30.58;;;16.15;;
60478;SDS011;46321;48.398;11.754;2024-03-02T09:09:14;30.50;;;16.40;;
60478;SDS011;46321;48.398;11.754;2024-03-02T09:11:39;30.50;;;16.20;;
60478;SDS011;46321;48.398;11.754;2024-03-02T09:14:05;29.58;;;15.43;;
60478;SDS011;46321;48.398;11.754;2024-03-02T09:16:30;27.67;;;15.30;;
60478;SDS011;46321;48.398;11.754;2024-03-02T09:18:56;28.52;;;15.02;;
60478;SDS011;46321;48.398;11.754;2024-03-02T09:21:21;26.50;;;15.45;;
60478;SDS011;46321;48.398;11.754;2024-03-02T09:23:47;26.92;;;15.85;;
60478;SDS011;46321;48.398;11.754;2024-03-02T09:26:13;27.33;;;16.05;;
60478;SDS011;46321;48.398;11.754;2024-03-02T09:28:42;22.92;;;15.25;;
60478;SDS011;46321;48.398;11.754;2024-03-02T09:31:08;27.08;;;16.75;;
60478;SDS011;46321;48.398;11.754;2024-03-02T09:33:33;30.55;;;18.55;;
60478;SDS011;46321;48.398;11.754;2024-03-02T09:35:58;29.42;;;17.92;;
60478;SDS011;46321;48.398;11.754;2024-03-02T09:38:23;29.55;;;17.42;;
60478;SDS011;46321;48.398;11.754;2024-03-02T09:40:49;27.75;;;16.83;;
60478;SDS011;46321;48.398;11.754;2024-03-02T09:43:14;30.50;;;18.30;;
60478;SDS011;46321;48.398;11.754;2024-03-02T09:45:39;31.15;;;18.30;;
60478;SDS011;46321;48.398;11.754;2024-03-02T09:48:05;31.13;;;18.05;;
60478;SDS011;46321;48.398;11.754;2024-03-02T09:50:30;34.78;;;19.65;;
60478;SDS011;46321;48.398;11.754;2024-03-02T09:52:56;37.55;;;20.65;;
60478;SDS011;46321;48.398;11.754;2024-03-02T09:55:21;35.92;;;18.58;;
60478;SDS011;46321;48.398;11.754;2024-03-02T09:57:47;35.45;;;19.33;;
60478;SDS011;46321;48.398;11.754;2024-03-02T10:00:16;37.78;;;20.85;;
60478;SDS011;46321;48.398;11.754;2024-03-02T10:02:42;37.08;;;20.10;;
60478;SDS011;46321;48.398;11.754;2024-03-02T10:05:08;36.22;;;19.38;;
60478;SDS011;46321;48.398;11.754;2024-03-02T10:07:34;35.05;;;18.73;;
60478;SDS011;46321;48.398;11.754;2024-03-02T10:10:00;34.50;;;18.90;;
60478;SDS011;46321;48.398;11.754;2024-03-02T10:12:38;35.67;;;20.10;;
60478;SDS011;46321;48.398;11.754;2024-03-02T10:15:04;38.50;;;20.50;;
60478;SDS011;46321;48.398;11.754;2024-03-02T10:17:30;37.47;;;20.90;;
60478;SDS011;46321;48.398;11.754;2024-03-02T10:19:56;37.03;;;20.33;;
60478;SDS011;46321;48.398;11.754;2024-03-02T10:22:22;38.42;;;19.77;;
60478;SDS011;46321;48.398;11.754;2024-03-02T10:24:48;40.00;;;20.33;;
60478;SDS011;46321;48.398;11.754;2024-03-02T10:27:18;38.58;;;20.10;;
60478;SDS011;46321;48.398;11.754;2024-03-02T10:29:51;39.30;;;19.30;;
60478;SDS011;46321;48.398;11.754;2024-03-02T10:32:17;39.70;;;19.00;;
60478;SDS011;46321;48.398;11.754;2024-03-02T10:34:43;42.10;;;18.67;;
60478;SDS011;46321;48.398;11.754;2024-03-02T10:37:12;36.30;;;18.15;;
60478;SDS011;46321;48.398;11.754;2024-03-02T10:39:39;35.80;;;18.42;;
60478;SDS011;46321;48.398;11.754;2024-03-02T10:42:05;36.58;;;18.80;;
60478;SDS011;46321;48.398;11.754;2024-03-02T10:44:31;34.60;;;18.52;;
60478;SDS011;46321;48.398;11.754;2024-03-02T10:46:59;32.60;;;19.23;;
60478;SDS011;46321;48.398;11.754;2024-03-02T10:49:27;29.92;;;17.60;;
60478;SDS011;46321;48.398;11.754;2024-03-02T10:51:54;29.95;;;17.20;;
60478;SDS011;46321;48.398;11.754;2024-03-02T10:54:19;27.83;;;16.50;;
60478;SDS011;46321;48.398;11.754;2024-03-02T10:56:50;28.30;;;16.92;;
60478;SDS011;46321;48.398;11.754;2024-03-02T10:59:25;27.88;;;17.33;;
60478;SDS011;46321;48.398;11.754;2024-03-02T11:01:58;27.02;;;16.63;;
60478;SDS011;46321;48.398;11.754;2024-03-02T11:04:25;25.92;;;16.33;;
60478;SDS011;46321;48.398;11.754;2024-03-02T11:07:16;28.13;;;15.65;;
60478;SDS011;46321;48.398;11.754;2024-03-02T11:09:45;25.75;;;16.00;;
60478;SDS011;46321;48.398;11.754;2024-03-02T11:12:19;24.75;;;16.00;;
60478;SDS011;46321;48.398;11.754;2024-03-02T11:14:51;24.80;;;15.05;;
60478;SDS011;46321;48.398;11.754;2024-03-02T11:17:19;22.15;;;14.80;;
60478;SDS011;46321;48.398;11.754;2024-03-02T11:19:45;22.13;;;14.63;;
60478;SDS011;46321;48.398;11.754;2024-03-02T11:22:12;26.00;;;15.30;;
60478;SDS011;46321;48.398;11.754;2024-03-02T11:24:38;23.42;;;14.25;;
60478;SDS011;46321;48.398;11.754;2024-03-02T11:27:04;22.63;;;14.67;;
60478;SDS011;46321;48.398;11.754;2024-03-02T11:32:05;22.00;;;13.98;;
60478;SDS011;46321;48.398;11.754;2024-03-02T11:34:42;24.75;;;14.68;;
60478;SDS011;46321;48.398;11.754;2024-03-02T11:37:20;24.88;;;14.93;;
60478;SDS011;46321;48.398;11.754;2024-03-02T11:39:46;24.17;;;14.18;;
60478;SDS011;46321;48.398;11.754;2024-03-02T11:42:14;26.48;;;14.70;;
60478;SDS011;46321;48.398;11.754;2024-03-02T11:44:46;23.98;;;13.73;;
60478;SDS011;46321;48.398;11.754;2024-03-02T11:47:14;27.73;;;14.35;;
60478;SDS011;46321;48.398;11.754;2024-03-02T11:49:50;23.77;;;14.23;;
60478;SDS011;46321;48.398;11.754;2024-03-02T11:52:19;26.00;;;13.60;;
60478;SDS011;46321;48.398;11.754;2024-03-02T11:54:46;23.38;;;13.27;;
60478;SDS011;46321;48.398;11.754;2024-03-02T11:57:13;22.83;;;12.13;;
60478;SDS011;46321;48.398;11.754;2024-03-02T11:59:42;25.00;;;12.73;;
60478;SDS011;46321;48.398;11.754;2024-03-02T12:02:13;22.63;;;11.43;;
60478;SDS011;46321;48.398;11.754;2024-03-02T12:04:43;26.08;;;12.18;;
60478;SDS011;46321;48.398;11.754;2024-03-02T12:07:09;22.60;;;12.02;;
60478;SDS011;46321;48.398;11.754;2024-03-02T12:09:36;24.17;;;12.63;;
60478;SDS011;46321;48.398;11.754;2024-03-02T12:12:04;25.17;;;13.43;;
60478;SDS011;46321;48.398;11.754;2024-03-02T12:14:34;23.85;;;13.63;;
60478;SDS011;46321;48.398;11.754;2024-03-02T12:17:01;23.38;;;11.88;;
60478;SDS011;46321;48.398;11.754;2024-03-02T12:19:26;22.80;;;12.02;;
60478;SDS011;46321;48.398;11.754;2024-03-02T12:21:54;27.23;;;13.35;;
60478;SDS011;46321;48.398;11.754;2024-03-02T12:24:21;26.27;;;12.60;;
60478;SDS011;46321;48.398;11.754;2024-03-02T12:26:47;25.45;;;12.23;;
60478;SDS011;46321;48.398;11.754;2024-03-02T12:29:14;27.92;;;14.48;;
60478;SDS011;46321;48.398;11.754;2024-03-02T12:31:40;29.60;;;14.65;;
60478;SDS011;46321;48.398;11.754;2024-03-02T12:34:05;25.50;;;13.52;;
60478;SDS011;46321;48.398;11.754;2024-03-02T12:36:36;22.67;;;12.18;;
60478;SDS011;46321;48.398;11.754;2024-03-02T12:39:03;26.95;;;12.68;;
60478;SDS011;46321;48.398;11.754;2024-03-02T12:41:28;26.75;;;14.15;;
60478;SDS011;46321;48.398;11.754;2024-03-02T12:43:53;24.67;;;12.60;;
60478;SDS011;46321;48.398;11.754;2024-03-02T12:46:19;24.90;;;12.55;;
60478;SDS011;46321;48.398;11.754;2024-03-02T12:48:45;24.08;;;11.80;;
60478;SDS011;46321;48.398;11.754;2024-03-02T12:51:10;22.77;;;11.20;;
60478;SDS011;46321;48.398;11.754;2024-03-02T12:53:36;23.70;;;11.45;;
60478;SDS011;46321;48.398;11.754;2024-03-02T12:56:01;25.88;;;13.52;;
60478;SDS011;46321;48.398;11.754;2024-03-02T12:58:26;25.83;;;13.40;;
60478;SDS011;46321;48.398;11.754;2024-03-02T13:01:05;26.45;;;12.95;;
60478;SDS011;46321;48.398;11.754;2024-03-02T13:03:37;27.20;;;13.68;;
60478;SDS011;46321;48.398;11.754;2024-03-02T13:06:04;25.23;;;12.63;;
60478;SDS011;46321;48.398;11.754;2024-03-02T13:08:30;26.90;;;13.60;;
60478;SDS011;46321;48.398;11.754;2024-03-02T13:10:55;28.90;;;14.50;;
60478;SDS011;46321;48.398;11.754;2024-03-02T13:13:21;28.25;;;13.43;;
60478;SDS011;46321;48.398;11.754;2024-03-02T13:15:46;29.73;;;14.50;;
60478;SDS011;46321;48.398;11.754;2024-03-02T13:18:11;27.88;;;13.70;;
60478;SDS011;46321;48.398;11.754;2024-03-02T13:20:37;27.83;;;13.73;;
60478;SDS011;46321;48.398;11.754;2024-03-02T13:23:03;29.30;;;13.90;;
60478;SDS011;46321;48.398;11.754;2024-03-02T13:25:29;25.70;;;13.68;;
60478;SDS011;46321;48.398;11.754;2024-03-02T13:27:56;25.80;;;12.75;;
60478;SDS011;46321;48.398;11.754;2024-03-02T13:30:22;29.90;;;13.25;;
60478;SDS011;46321;48.398;11.754;2024-03-02T13:32:47;31.23;;;13.15;;
60478;SDS011;46321;48.398;11.754;2024-03-02T13:35:12;27.65;;;12.73;;
60478;SDS011;46321;48.398;11.754;2024-03-02T13:37:38;24.55;;;13.02;;
60478;SDS011;46321;48.398;11.754;2024-03-02T13:40:03;27.23;;;12.93;;
60478;SDS011;46321;48.398;11.754;2024-03-02T13:42:30;27.35;;;12.82;;
60478;SDS011;46321;48.398;11.754;2024-03-02T13:44:55;28.15;;;12.45;;
60478;SDS011;46321;48.398;11.754;2024-03-02T13:47:21;26.70;;;13.40;;
60478;SDS011;46321;48.398;11.754;2024-03-02T13:49:46;25.42;;;13.35;;
60478;SDS011;46321;48.398;11.754;2024-03-02T13:52:13;28.90;;;13.88;;
60478;SDS011;46321;48.398;11.754;2024-03-02T13:54:45;28.50;;;14.65;;
60478;SDS011;46321;48.398;11.754;2024-03-02T13:57:11;29.10;;;13.75;;
60478;SDS011;46321;48.398;11.754;2024-03-02T13:59:37;29.15;;;13.73;;
60478;SDS011;46321;48.398;11.754;2024-03-02T14:02:04;27.58;;;14.07;;
60478;SDS011;46321;48.398;11.754;2024-03-02T14:04:33;28.85;;;14.68;;
60478;SDS011;46321;48.398;11.754;2024-03-02T14:06:59;26.05;;;14.05;;
60478;SDS011;46321;48.398;11.754;2024-03-02T14:09:25;24.95;;;12.85;;
60478;SDS011;46321;48.398;11.754;2024-03-02T14:11:50;29.75;;;13.65;;
60478;SDS011;46321;48.398;11.754;2024-03-02T14:14:18;26.98;;;13.60;;